Time;durP1;ratioP1;P1;durP2;ratioP2;P2;SDS_P1;SDS_P2;PMS_P1;PMS_P2;Temp;Humidity;BMP_temperature;BMP_pressure;BME280_temperature;BME280_humidity;BME280_pressure;Samples;Min_cycle;Max_cycle;Signal;HPM_P1;HPM_P2
2023/05/03 00:02:04;;;;;;;;;17.67;17.67;;;;;-147.47;100.00;64613.53;4992705;28;45442;-85
2023/05/03 00:13:55;;;;;;;;;24.00;19.00;;;;;-147.47;100.00;64613.53;4987766;28;45479;-85
2023/05/03 00:16:35;;;;;;;;;;;;;;;;;;;;;
2023/05/03 00:50:18;;;;;;;;;16.00;16.00;;;;;-147.47;100.00;64613.53;4840101;29;45717;-79
2023/05/03 00:52:45;;;;;;;;;21.33;20.33;;;;;-147.47;100.00;64613.53;4899071;28;46345;-81
2023/05/03 00:56:20;;;;;;;;;;;;;;;;;;;;;
2023/05/03 01:09:47;;;;;;;;;22.00;20.67;;;;;-147.47;100.00;64613.53;4896743;28;45400;-81
2023/05/03 01:12:49;;;;;;;;;16.33;16.33;;;;;-147.47;100.00;64613.53;4936048;28;45553;-84
2023/05/03 01:15:44;;;;;;;;;16.67;15.67;;;;;-147.47;100.00;64613.53;4969812;28;45674;-82
2023/05/03 01:18:32;;;;;;;;;20.00;18.00;;;;;-147.47;100.00;64613.53;5001654;28;45941;-82
2023/05/03 01:21:32;;;;;;;;;17.00;15.00;;;;;-147.47;100.00;64613.53;5026784;28;45872;-83
2023/05/03 01:24:04;;;;;;;;;13.67;12.67;;;;;-147.47;100.00;64613.53;5039293;28;45829;-82
2023/05/03 01:27:13;;;;;;;;;;;;;;;;;;;;;
2023/05/03 01:29:39;;;;;;;;;12.67;12.67;;;;;-147.47;100.00;64613.53;5053048;28;74051;-79
2023/05/03 01:32:11;;;;;;;;;17.67;16.33;;;;;-147.47;100.00;64613.53;5035576;28;45505;-79
2023/05/03 01:34:49;;;;;;;;;21.00;17.00;;;;;-147.47;100.00;64613.53;5063222;28;45829;-77
2023/05/03 01:37:16;;;;;;;;;15.00;15.00;;;;;-147.47;100.00;64613.53;5035897;28;45835;-77
2023/05/03 01:39:58;;;;;;;;;15.33;15.33;;;;;-147.47;100.00;64613.53;5051973;28;47196;-79
2023/05/03 01:42:26;;;;;;;;;18.33;14.67;;;;;-147.47;100.00;64613.53;5050844;28;45429;-80
2023/05/03 01:44:53;;;;;;;;;17.00;15.00;;;;;-147.47;100.00;64613.53;5035714;28;45534;-79
2023/05/03 01:47:22;;;;;;;;;18.33;17.33;;;;;-147.47;100.00;64613.53;5070666;28;45543;-81
2023/05/03 02:29:59;;;;;;;;;;;;;;;;;;;;;
2023/05/03 02:32:25;;;;;;;;;18.67;17.67;;;;;-147.47;100.00;64613.53;4815707;29;74243;-78
2023/05/03 02:34:50;;;;;;;;;13.67;12.33;;;;;-147.47;100.00;64613.53;4868068;28;45465;-79
2023/05/03 02:37:15;;;;;;;;;22.33;16.33;;;;;-147.47;100.00;64613.53;5043482;28;45379;-77
2023/05/03 02:39:41;;;;;;;;;16.67;15.33;;;;;-147.47;100.00;64613.53;5050727;28;46563;-76
2023/05/03 02:42:07;;;;;;;;;16.33;15.00;;;;;-147.47;100.00;64613.53;5051648;28;46196;-75
2023/05/03 02:44:32;;;;;;;;;21.67;16.00;;;;;-147.47;100.00;64613.53;5036485;28;45290;-77
2023/05/03 02:46:58;;;;;;;;;16.33;14.67;;;;;-147.47;100.00;64613.53;5042857;28;45536;-78
2023/05/03 02:49:23;;;;;;;;;21.00;14.67;;;;;-147.47;100.00;64613.53;5055136;28;45550;-76
2023/05/03 02:51:49;;;;;;;;;18.00;16.33;;;;;-147.47;100.00;64613.53;5057369;28;46265;-80
2023/05/03 02:54:14;;;;;;;;;19.67;16.00;;;;;-147.47;100.00;64613.53;5052844;28;45431;-80
2023/05/03 02:56:40;;;;;;;;;17.00;16.50;;;;;-147.47;100.00;64613.53;5051414;28;46036;-80
2023/05/03 02:59:05;;;;;;;;;12.00;11.33;;;;;-147.47;100.00;64613.53;5053067;28;45757;-81
2023/05/03 03:01:34;;;;;;;;;14.67;13.00;;;;;-147.47;100.00;64613.53;5031032;28;48183;-81
2023/05/03 03:03:59;;;;;;;;;12.33;12.00;;;;;-147.47;100.00;64613.53;5035596;28;45557;-82
2023/05/03 03:06:25;;;;;;;;;18.67;15.33;;;;;-147.47;100.00;64613.53;5052946;28;45667;-80
2023/05/03 03:08:50;;;;;;;;;17.00;12.00;;;;;-147.47;100.00;64613.53;5057716;28;45410;-79
2023/05/03 03:11:16;;;;;;;;;16.67;14.67;;;;;-147.47;100.00;64613.53;5054733;28;46468;-79
2023/05/03 03:13:41;;;;;;;;;17.33;11.33;;;;;-147.47;100.00;64613.53;5042285;28;45815;-82
2023/05/03 03:16:07;;;;;;;;;13.00;12.00;;;;;-147.47;100.00;64613.53;5056821;28;45360;-80
2023/05/03 03:18:33;;;;;;;;;16.00;14.00;;;;;-147.47;100.00;64613.53;5032167;28;46752;-79
2023/05/03 03:21:04;;;;;;;;;14.33;13.00;;;;;-147.47;100.00;64613.53;5033199;28;47338;-80
2023/05/03 03:23:31;;;;;;;;;23.33;16.33;;;;;-147.47;100.00;64613.53;5065793;28;45573;-80
2023/05/03 03:25:56;;;;;;;;;17.67;14.33;;;;;-147.47;100.00;64613.53;5056259;28;45874;-80
2023/05/03 03:28:23;;;;;;;;;20.00;19.00;;;;;-147.47;100.00;64613.53;5064087;28;45799;-82
2023/05/03 03:30:48;;;;;;;;;21.00;15.00;;;;;-147.47;100.00;64613.53;5061412;28;46961;-82
2023/05/03 03:33:14;;;;;;;;;18.33;16.33;;;;;-147.47;100.00;64613.53;5056462;28;45374;-80
2023/05/03 03:35:39;;;;;;;;;21.67;19.00;;;;;-147.47;100.00;64613.53;5058703;28;45444;-81
2023/05/03 03:38:05;;;;;;;;;20.33;18.67;;;;;-147.47;100.00;64613.53;5058296;28;45549;-81
2023/05/03 03:40:31;;;;;;;;;15.67;15.67;;;;;-147.47;100.00;64613.53;5059337;28;45472;-82
2023/05/03 03:42:56;;;;;;;;;18.00;14.00;;;;;-147.47;100.00;64613.53;5063138;28;45345;-81
2023/05/03 03:45:22;;;;;;;;;22.33;19.67;;;;;-147.47;100.00;64613.53;5059820;28;45568;-80
2023/05/03 03:47:50;;;;;;;;;19.00;15.67;;;;;-147.47;100.00;64613.53;5061112;28;45463;-83
2023/05/03 03:50:16;;;;;;;;;21.00;18.33;;;;;-147.47;100.00;64613.53;5040246;28;46997;-80
2023/05/03 03:52:41;;;;;;;;;20.67;19.00;;;;;-147.47;100.00;64613.53;5068388;28;45409;-82
2023/05/03 03:55:08;;;;;;;;;21.00;16.33;;;;;-147.47;100.00;64613.53;5066535;28;45323;-79
2023/05/03 03:58:14;;;;;;;;;23.00;18.67;;;;;-147.47;100.00;64613.53;5084337;28;45422;-83
2023/05/03 04:00:55;;;;;;;;;29.00;17.67;;;;;-147.47;100.00;64613.53;5062902;28;46304;-79
2023/05/03 04:03:20;;;;;;;;;26.67;21.33;;;;;-147.47;100.00;64613.53;5048614;28;45767;-80
2023/05/03 04:05:46;;;;;;;;;21.33;19.33;;;;;-147.47;100.00;64613.53;5061536;28;45167;-80
2023/05/03 04:08:11;;;;;;;;;22.67;19.00;;;;;-147.47;100.00;64613.53;5057580;28;46208;-81
2023/05/03 04:10:37;;;;;;;;;21.67;19.00;;;;;-147.47;100.00;64613.53;5063558;28;45465;-80
2023/05/03 04:13:03;;;;;;;;;23.67;20.00;;;;;-147.47;100.00;64613.53;5044717;28;45389;-80
2023/05/03 04:15:28;;;;;;;;;22.00;18.33;;;;;-147.47;100.00;64613.53;5053735;28;45435;-80
2023/05/03 04:17:54;;;;;;;;;16.00;16.00;;;;;-147.47;100.00;64613.53;5051856;28;45391;-80
2023/05/03 04:20:20;;;;;;;;;20.67;20.00;;;;;-147.47;100.00;64613.53;5075073;28;48066;-79
2023/05/03 04:22:45;;;;;;;;;16.67;11.00;;;;;-147.47;100.00;64613.53;5068131;28;46026;-79
2023/05/03 04:25:15;;;;;;;;;21.00;20.00;;;;;-147.47;100.00;64613.53;5057853;28;45405;-82
2023/05/03 04:27:43;;;;;;;;;23.00;18.67;;;;;-147.47;100.00;64613.53;5058695;28;45580;-81
2023/05/03 04:30:09;;;;;;;;;26.00;22.33;;;;;-147.47;100.00;64613.53;5057344;28;46225;-81
2023/05/03 04:32:36;;;;;;;;;34.67;27.33;;;;;-147.47;100.00;64613.53;5052386;28;45423;-79
2023/05/03 04:35:07;;;;;;;;;30.67;24.00;;;;;-147.47;100.00;64613.53;5055198;28;45761;-77
2023/05/03 04:37:32;;;;;;;;;22.33;20.67;;;;;-147.47;100.00;64613.53;5055600;28;45444;-78
2023/05/03 04:39:58;;;;;;;;;21.67;20.33;;;;;-147.47;100.00;64613.53;5053075;28;45538;-77
2023/05/03 04:42:23;;;;;;;;;25.33;19.67;;;;;-147.47;100.00;64613.53;5058697;28;44761;-78
2023/05/03 04:44:48;;;;;;;;;29.33;23.33;;;;;-147.47;100.00;64613.53;5055837;28;45809;-78
2023/05/03 04:47:14;;;;;;;;;21.00;18.67;;;;;-147.47;100.00;64613.53;5055969;28;45736;-77
2023/05/03 04:49:42;;;;;;;;;25.00;24.00;;;;;-147.47;100.00;64613.53;5054928;28;45934;-78
2023/05/03 04:52:09;;;;;;;;;20.00;20.00;;;;;-147.47;100.00;64613.53;5061012;28;45795;-76
2023/05/03 04:54:34;;;;;;;;;23.00;19.00;;;;;-147.47;100.00;64613.53;5055657;28;45870;-81
2023/05/03 04:57:00;;;;;;;;;27.00;22.00;;;;;-147.47;100.00;64613.53;5038515;28;45954;-79
2023/05/03 04:59:26;;;;;;;;;25.00;21.00;;;;;-147.47;100.00;64613.53;5054159;28;45647;-80
2023/05/03 05:01:51;;;;;;;;;20.00;17.00;;;;;-147.47;100.00;64613.53;5052767;28;45544;-80
2023/05/03 05:04:16;;;;;;;;;23.00;21.00;;;;;-147.47;100.00;64613.53;5055187;28;45728;-79
2023/05/03 05:06:42;;;;;;;;;20.67;16.00;;;;;-147.47;100.00;64613.53;5053822;28;45330;-78
2023/05/03 05:09:20;;;;;;;;;20.00;16.00;;;;;-147.47;100.00;64613.53;5052821;28;47820;-78
2023/05/03 05:11:46;;;;;;;;;25.00;20.33;;;;;-147.47;100.00;64613.53;5032296;28;45509;-78
2023/05/03 05:14:12;;;;;;;;;19.67;17.67;;;;;-147.47;100.00;64613.53;5053671;28;45939;-78
2023/05/03 05:16:38;;;;;;;;;21.00;18.00;;;;;-147.47;100.00;64613.53;5057062;28;47495;-80
2023/05/03 05:19:03;;;;;;;;;25.67;21.33;;;;;-147.47;100.00;64613.53;5061811;28;46622;-78
2023/05/03 05:21:29;;;;;;;;;18.67;18.33;;;;;-147.47;100.00;64613.53;5062017;28;45513;-77
2023/05/03 05:23:54;;;;;;;;;14.33;14.33;;;;;-147.47;100.00;64613.53;5044928;28;45445;-79
2023/05/03 05:26:20;;;;;;;;;25.00;19.67;;;;;-147.47;100.00;64613.53;5063933;28;45632;-77
2023/05/03 05:28:45;;;;;;;;;23.00;21.33;;;;;-147.47;100.00;64613.53;5055623;28;45466;-78
2023/05/03 05:31:12;;;;;;;;;24.33;18.67;;;;;-147.47;100.00;64613.53;5056170;28;45406;-79
2023/05/03 05:33:37;;;;;;;;;20.00;17.67;;;;;-147.47;100.00;64613.53;5040358;28;45404;-76
2023/05/03 05:36:03;;;;;;;;;25.67;23.67;;;;;-147.47;100.00;64613.53;5054371;28;45322;-80
2023/05/03 05:38:28;;;;;;;;;22.00;19.67;;;;;-147.47;100.00;64613.53;5067635;28;45841;-79
2023/05/03 05:40:54;;;;;;;;;14.33;14.33;;;;;-147.47;100.00;64613.53;5056665;28;45470;-76
2023/05/03 05:43:19;;;;;;;;;18.33;15.67;;;;;-147.47;100.00;64613.53;5051052;28;45373;-77
2023/05/03 05:45:45;;;;;;;;;21.00;16.00;;;;;-147.47;100.00;64613.53;5053193;28;47068;-78
2023/05/03 05:48:10;;;;;;;;;16.33;16.00;;;;;-147.47;100.00;64613.53;5061955;28;46394;-78
2023/05/03 05:50:36;;;;;;;;;21.33;18.00;;;;;-147.47;100.00;64613.53;5066289;28;45554;-77
2023/05/03 05:53:01;;;;;;;;;26.67;23.33;;;;;-147.47;100.00;64613.53;5066845;28;44840;-76
2023/05/03 05:55:27;;;;;;;;;18.67;17.00;;;;;-147.47;100.00;64613.53;5068401;28;45562;-77
2023/05/03 05:57:52;;;;;;;;;21.00;15.33;;;;;-147.47;100.00;64613.53;5059278;28;45561;-77
2023/05/03 06:00:18;;;;;;;;;54.33;42.00;;;;;-147.47;100.00;64613.53;5055728;28;45755;-76
2023/05/03 06:02:44;;;;;;;;;23.33;17.00;;;;;-147.47;100.00;64613.53;5042864;28;45827;-76
2023/05/03 06:05:10;;;;;;;;;13.33;13.00;;;;;-147.47;100.00;64613.53;5069543;28;45547;-75
2023/05/03 06:07:36;;;;;;;;;15.67;14.67;;;;;-147.47;100.00;64613.53;5059194;28;45787;-75
2023/05/03 06:10:03;;;;;;;;;21.00;19.00;;;;;-147.47;100.00;64613.53;5064755;28;45646;-77
2023/05/03 06:12:29;;;;;;;;;17.67;17.67;;;;;-147.47;100.00;64613.53;5068352;28;45449;-78
2023/05/03 06:14:55;;;;;;;;;24.33;19.00;;;;;-147.47;100.00;64613.53;5054775;28;45758;-80
2023/05/03 06:17:26;;;;;;;;;21.67;18.67;;;;;-147.47;100.00;64613.53;5041013;28;46927;-80
2023/05/03 06:19:51;;;;;;;;;22.67;17.33;;;;;-147.47;100.00;64613.53;5053763;28;45455;-76
2023/05/03 06:22:17;;;;;;;;;14.00;10.67;;;;;-147.47;100.00;64613.53;5039906;28;45759;-76
2023/05/03 06:24:42;;;;;;;;;13.67;9.67;;;;;-147.47;100.00;64613.53;5041015;28;47167;-76
2023/05/03 06:27:08;;;;;;;;;11.00;10.67;;;;;-147.47;100.00;64613.53;5033598;28;45548;-76
2023/05/03 06:29:33;;;;;;;;;20.33;16.33;;;;;-147.47;100.00;64613.53;5030506;28;45413;-75
2023/05/03 06:31:59;;;;;;;;;22.33;19.00;;;;;-147.47;100.00;64613.53;5053486;28;45427;-77
2023/05/03 06:34:24;;;;;;;;;31.00;26.00;;;;;-147.47;100.00;64613.53;5048915;28;46060;-75
2023/05/03 06:36:50;;;;;;;;;22.00;20.67;;;;;-147.47;100.00;64613.53;5058361;28;45633;-74
2023/05/03 06:39:16;;;;;;;;;18.67;17.00;;;;;-147.47;100.00;64613.53;5061909;28;45881;-76
2023/05/03 06:41:42;;;;;;;;;20.33;17.67;;;;;-147.47;100.00;64613.53;5018867;28;45521;-76
2023/05/03 06:44:08;;;;;;;;;19.00;15.33;;;;;-147.47;100.00;64613.53;5050785;28;45759;-76
2023/05/03 06:46:34;;;;;;;;;16.00;13.33;;;;;-147.47;100.00;64613.53;5053902;28;45769;-75
2023/05/03 06:48:59;;;;;;;;;18.33;16.00;;;;;-147.47;100.00;64613.53;5052408;28;45547;-76
2023/05/03 06:51:29;;;;;;;;;21.00;16.00;;;;;-147.47;100.00;64613.53;5055435;28;45545;-76
2023/05/03 06:53:55;;;;;;;;;13.00;7.33;;;;;-147.47;100.00;64613.53;5054033;28;45588;-75
2023/05/03 06:56:21;;;;;;;;;20.00;17.67;;;;;-147.47;100.00;64613.53;5053438;28;48343;-76
2023/05/03 06:58:47;;;;;;;;;18.33;13.33;;;;;-147.47;100.00;64613.53;5055395;28;45418;-75
2023/05/03 07:01:12;;;;;;;;;19.00;16.67;;;;;-147.47;100.00;64613.53;5057827;28;45568;-74
2023/05/03 07:03:38;;;;;;;;;20.00;18.00;;;;;-147.47;100.00;64613.53;5037121;28;45902;-74
2023/05/03 07:06:04;;;;;;;;;16.33;13.00;;;;;-147.47;100.00;64613.53;5054779;28;45937;-75
2023/05/03 07:08:30;;;;;;;;;17.00;15.00;;;;;-147.47;100.00;64613.53;5054746;28;45375;-74
2023/05/03 07:10:55;;;;;;;;;13.67;13.67;;;;;-147.47;100.00;64613.53;5055544;28;45556;-73
2023/05/03 07:13:21;;;;;;;;;19.33;16.33;;;;;-147.47;100.00;64613.53;5058127;28;45601;-73
2023/05/03 07:15:46;;;;;;;;;18.00;16.00;;;;;-147.47;100.00;64613.53;5060569;28;46185;-74
2023/05/03 07:18:11;;;;;;;;;16.00;16.00;;;;;-147.47;100.00;64613.53;5065263;28;45364;-76
2023/05/03 07:20:37;;;;;;;;;18.00;15.33;;;;;-147.47;100.00;64613.53;5037312;28;45356;-76
2023/05/03 07:23:03;;;;;;;;;19.33;17.00;;;;;-147.47;100.00;64613.53;5056281;28;45378;-74
2023/05/03 07:25:28;;;;;;;;;14.00;10.33;;;;;-147.47;100.00;64613.53;5032891;28;46269;-77
2023/05/03 07:27:54;;;;;;;;;17.67;12.67;;;;;-147.47;100.00;64613.53;5054557;28;45756;-76
2023/05/03 07:30:21;;;;;;;;;17.00;14.00;;;;;-147.47;100.00;64613.53;5055093;28;45534;-77
2023/05/03 07:32:46;;;;;;;;;19.33;16.67;;;;;-147.47;100.00;64613.53;5045179;28;46344;-76
2023/05/03 07:35:12;;;;;;;;;14.00;11.67;;;;;-147.47;100.00;64613.53;5066035;28;46458;-82
2023/05/03 07:37:37;;;;;;;;;15.67;13.67;;;;;-147.47;100.00;64613.53;5070394;28;45439;-83
2023/05/03 07:40:05;;;;;;;;;16.33;14.67;;;;;-147.47;100.00;64613.53;5040296;28;45688;-81
2023/05/03 07:42:31;;;;;;;;;17.33;15.33;;;;;-147.47;100.00;64613.53;5057760;28;46118;-83
2023/05/03 07:44:59;;;;;;;;;15.33;14.67;;;;;-147.47;100.00;64613.53;5063790;28;45356;-82
2023/05/03 07:47:26;;;;;;;;;17.00;15.67;;;;;-147.47;100.00;64613.53;5058656;28;45430;-82
2023/05/03 07:49:52;;;;;;;;;13.33;9.67;;;;;-147.47;100.00;64613.53;5058265;28;45512;-82
2023/05/03 07:52:18;;;;;;;;;18.67;15.67;;;;;-147.47;100.00;64613.53;5062775;28;45679;-85
2023/05/03 07:54:44;;;;;;;;;16.67;12.67;;;;;-147.47;100.00;64613.53;5045719;28;46793;-82
2023/05/03 07:57:14;;;;;;;;;18.00;13.33;;;;;-147.47;100.00;64613.53;5059202;28;45419;-82
2023/05/03 07:59:39;;;;;;;;;19.00;14.00;;;;;-147.47;100.00;64613.53;5067238;28;45313;-84
2023/05/03 08:02:05;;;;;;;;;16.33;13.67;;;;;-147.47;100.00;64613.53;5074661;28;45738;-82
2023/05/03 08:04:31;;;;;;;;;13.50;13.25;;;;;-147.47;100.00;64613.53;5084294;28;45406;-83
2023/05/03 08:07:00;;;;;;;;;16.75;13.50;;;;;-147.47;100.00;64613.53;5041984;28;45531;-83
2023/05/03 08:09:27;;;;;;;;;21.00;18.67;;;;;-147.47;100.00;64613.53;5054455;28;45649;-84
2023/05/03 08:11:53;;;;;;;;;13.50;11.75;;;;;-147.47;100.00;64613.53;5045829;28;45558;-82
2023/05/03 08:14:18;;;;;;;;;15.67;14.67;;;;;-147.47;100.00;64613.53;5041855;28;47258;-83
2023/05/03 08:16:44;;;;;;;;;15.67;13.00;;;;;-147.47;100.00;64613.53;5071087;28;45430;-84
2023/05/03 08:19:09;;;;;;;;;14.67;12.33;;;;;-147.47;100.00;64613.53;5067549;28;45780;-82
2023/05/03 08:21:35;;;;;;;;;14.00;14.00;;;;;-147.47;100.00;64613.53;5059087;28;45521;-83
2023/05/03 08:24:01;;;;;;;;;11.75;11.50;;;;;-147.47;100.00;64613.53;5068383;28;46346;-84
2023/05/03 08:26:28;;;;;;;;;19.00;16.67;;;;;-147.47;100.00;64613.53;5067771;28;45795;-82
2023/05/03 08:28:54;;;;;;;;;16.00;16.00;;;;;-147.47;100.00;64613.53;5064840;28;45526;-82
2023/05/03 08:31:20;;;;;;;;;14.00;12.33;;;;;-147.47;100.00;64613.53;5043326;28;45867;-83
2023/05/03 08:33:45;;;;;;;;;17.67;14.33;;;;;-147.47;100.00;64613.53;5062799;28;45970;-83
2023/05/03 08:36:11;;;;;;;;;15.00;15.00;;;;;-147.47;100.00;64613.53;5045103;28;45470;-83
2023/05/03 08:38:40;;;;;;;;;12.67;12.67;;;;;-147.47;100.00;64613.53;5066087;28;45513;-84
2023/05/03 08:41:16;;;;;;;;;15.67;14.00;;;;;-147.47;100.00;64613.53;5055701;28;46296;-81
2023/05/03 08:43:44;;;;;;;;;17.00;14.75;;;;;-147.47;100.00;64613.53;5056803;28;45711;-83
2023/05/03 08:46:12;;;;;;;;;16.00;12.50;;;;;-147.47;100.00;64613.53;5045433;28;45505;-83
2023/05/03 08:48:38;;;;;;;;;13.25;13.25;;;;;-147.47;100.00;64613.53;5050859;28;45415;-84
2023/05/03 08:51:08;;;;;;;;;16.00;12.50;;;;;-147.47;100.00;64613.53;5046972;28;46189;-84
2023/05/03 08:53:34;;;;;;;;;14.00;14.00;;;;;-147.47;100.00;64613.53;5047741;28;47322;-84
2023/05/03 08:55:59;;;;;;;;;18.25;12.75;;;;;-147.47;100.00;64613.53;5062818;28;45414;-85
2023/05/03 08:58:25;;;;;;;;;16.50;12.25;;;;;-147.47;100.00;64613.53;5071641;28;45453;-84
2023/05/03 09:00:50;;;;;;;;;14.50;10.75;;;;;-147.47;100.00;64613.53;5067912;28;45461;-83
2023/05/03 09:03:15;;;;;;;;;15.75;13.50;;;;;-147.47;100.00;64613.53;5054627;28;46137;-81
2023/05/03 09:05:43;;;;;;;;;12.50;10.50;;;;;-147.47;100.00;64613.53;5057015;28;45821;-80
2023/05/03 09:08:11;;;;;;;;;11.50;10.00;;;;;-147.47;100.00;64613.53;5059769;28;45486;-84
2023/05/03 09:10:38;;;;;;;;;10.75;10.75;;;;;-147.47;100.00;64613.53;5041198;28;46574;-84
2023/05/03 09:13:06;;;;;;;;;13.25;10.00;;;;;-147.47;100.00;64613.53;5056518;28;47820;-85
2023/05/03 09:15:32;;;;;;;;;14.00;10.50;;;;;-147.47;100.00;64613.53;5068078;28;45320;-83
2023/05/03 09:18:07;;;;;;;;;11.50;9.75;;;;;-147.47;100.00;64613.53;5066196;28;45506;-85
2023/05/03 09:20:37;;;;;;;;;18.00;13.75;;;;;-147.47;100.00;64613.53;5053541;28;45700;-83
2023/05/03 09:23:03;;;;;;;;;11.00;10.50;;;;;-147.47;100.00;64613.53;5054596;28;47479;-84
2023/05/03 09:25:44;;;;;;;;;10.50;10.50;;;;;-147.47;100.00;64613.53;5051826;28;45414;-84
2023/05/03 09:28:11;;;;;;;;;11.50;11.25;;;;;-147.47;100.00;64613.53;5065492;28;45381;-85
2023/05/03 09:30:37;;;;;;;;;10.75;10.75;;;;;-147.47;100.00;64613.53;5038228;28;45798;-83
2023/05/03 09:33:03;;;;;;;;;11.50;9.75;;;;;-147.47;100.00;64613.53;5055387;28;45497;-82
2023/05/03 09:35:29;;;;;;;;;14.00;12.25;;;;;-147.47;100.00;64613.53;5063004;28;45807;-86
2023/05/03 09:37:54;;;;;;;;;10.00;10.00;;;;;-147.47;100.00;64613.53;5073865;28;45360;-84
2023/05/03 09:40:20;;;;;;;;;10.50;8.25;;;;;-147.47;100.00;64613.53;5048992;28;45371;-83
2023/05/03 09:43:07;;;;;;;;;12.25;9.25;;;;;-147.47;100.00;64613.53;5035705;28;46185;-78
2023/05/03 09:45:34;;;;;;;;;11.25;11.00;;;;;-147.47;100.00;64613.53;5074375;28;45799;-75
2023/05/03 09:48:02;;;;;;;;;11.50;10.50;;;;;-147.47;100.00;64613.53;5056449;28;45605;-77
2023/05/03 09:50:28;;;;;;;;;15.25;14.00;;;;;-147.47;100.00;64613.53;5059740;28;45433;-78
2023/05/03 09:52:55;;;;;;;;;4.25;3.00;;;;;-147.47;100.00;64613.53;5071789;28;46377;-77
2023/05/03 09:55:20;;;;;;;;;15.00;12.75;;;;;-147.47;100.00;64613.53;5041739;28;45506;-76
2023/05/03 09:57:46;;;;;;;;;10.25;10.25;;;;;-147.47;100.00;64613.53;5054186;28;45443;-76
2023/05/03 10:00:15;;;;;;;;;13.50;11.50;;;;;-147.47;100.00;64613.53;5031119;28;46117;-77
2023/05/03 10:02:41;;;;;;;;;10.75;10.00;;;;;-147.47;100.00;64613.53;5053023;28;45438;-77
2023/05/03 10:05:11;;;;;;;;;10.75;9.75;;;;;-147.47;100.00;64613.53;5061728;28;45338;-79
2023/05/03 10:07:41;;;;;;;;;13.50;11.25;;;;;-147.47;100.00;64613.53;5061243;28;45641;-77
2023/05/03 10:10:06;;;;;;;;;8.75;6.00;;;;;-147.47;100.00;64613.53;5060568;28;45379;-77
2023/05/03 10:12:35;;;;;;;;;13.75;10.50;;;;;-147.47;100.00;64613.53;5051651;28;46251;-77
2023/05/03 10:15:06;;;;;;;;;13.25;9.75;;;;;-147.47;100.00;64613.53;5051821;28;45937;-79
2023/05/03 10:17:36;;;;;;;;;11.75;10.25;;;;;-147.47;100.00;64613.53;5060589;27;45613;-77
2023/05/03 10:20:29;;;;;;;;;11.00;11.00;;;;;-147.47;100.00;64613.53;5061745;28;45636;-78
2023/05/03 10:23:12;;;;;;;;;10.50;10.50;;;;;-147.47;100.00;64613.53;5057046;28;47807;-79
2023/05/03 10:25:39;;;;;;;;;8.75;6.75;;;;;-147.47;100.00;64613.53;5036768;28;45550;-79
2023/05/03 10:28:08;;;;;;;;;7.00;6.25;;;;;-147.47;100.00;64613.53;5052883;28;45765;-78
2023/05/03 10:30:38;;;;;;;;;11.50;10.75;;;;;-147.47;100.00;64613.53;5058982;28;45497;-76
2023/05/03 10:33:12;;;;;;;;;9.00;7.50;;;;;-147.47;100.00;64613.53;5045624;28;47347;-77
2023/05/03 10:35:40;;;;;;;;;7.75;5.25;;;;;-147.47;100.00;64613.53;5059790;28;45508;-79
2023/05/03 10:38:23;;;;;;;;;10.25;10.00;;;;;-147.47;100.00;64613.53;5060975;28;45895;-78
2023/05/03 10:40:49;;;;;;;;;9.50;9.50;;;;;-147.47;100.00;64613.53;5047340;28;45499;-78
2023/05/03 10:43:35;;;;;;;;;8.75;8.25;;;;;-147.47;100.00;64613.53;5044022;28;46379;-85
2023/05/03 10:46:12;;;;;;;;;8.50;7.50;;;;;-147.47;100.00;64613.53;5048430;28;45541;-82
2023/05/03 10:48:40;;;;;;;;;9.50;8.00;;;;;-147.47;100.00;64613.53;5054769;28;45742;-80
2023/05/03 10:51:32;;;;;;;;;7.50;7.50;;;;;-147.47;100.00;64613.53;5059066;28;45813;-82
2023/05/03 10:54:10;;;;;;;;;12.25;9.25;;;;;-147.47;100.00;64613.53;5059820;28;45449;-81
2023/05/03 10:56:49;;;;;;;;;10.00;9.75;;;;;-147.47;100.00;64613.53;5066480;28;45544;-79
2023/05/03 10:59:18;;;;;;;;;10.00;9.25;;;;;-147.47;100.00;64613.53;5059661;28;45476;-79
2023/05/03 11:01:45;;;;;;;;;12.75;9.75;;;;;-147.47;100.00;64613.53;5038125;28;45965;-79
2023/05/03 11:04:38;;;;;;;;;11.50;11.50;;;;;-147.47;100.00;64613.53;5054343;28;46018;-79
2023/05/03 11:07:03;;;;;;;;;15.00;11.00;;;;;-147.47;100.00;64613.53;5061036;28;45718;-80
2023/05/03 11:09:31;;;;;;;;;8.00;6.25;;;;;-147.47;100.00;64613.53;5050529;28;45847;-77
2023/05/03 11:11:56;;;;;;;;;12.00;9.50;;;;;-147.47;100.00;64613.53;5059547;28;45782;-77
2023/05/03 11:14:22;;;;;;;;;8.75;8.75;;;;;-147.47;100.00;64613.53;5057925;28;45863;-79
2023/05/03 11:16:49;;;;;;;;;15.50;10.25;;;;;-147.47;100.00;64613.53;5059099;28;45379;-80
2023/05/03 11:19:15;;;;;;;;;10.33;9.33;;;;;-147.47;100.00;64613.53;5056477;28;45796;-79
2023/05/03 11:21:41;;;;;;;;;11.00;11.00;;;;;-147.47;100.00;64613.53;5062263;28;45387;-78
2023/05/03 11:24:07;;;;;;;;;11.67;9.00;;;;;-147.47;100.00;64613.53;5058603;28;45722;-77
2023/05/03 11:26:37;;;;;;;;;9.00;6.00;;;;;-147.47;100.00;64613.53;5075309;28;45676;-81
2023/05/03 11:29:03;;;;;;;;;7.67;5.33;;;;;-147.47;100.00;64613.53;5056248;28;45526;-80
2023/05/03 11:31:29;;;;;;;;;10.67;9.00;;;;;-147.47;100.00;64613.53;5054547;28;46104;-73
2023/05/03 11:33:55;;;;;;;;;10.00;9.00;;;;;-147.47;100.00;64613.53;5063293;28;46164;-77
2023/05/03 11:36:20;;;;;;;;;10.67;10.67;;;;;-147.47;100.00;64613.53;5063938;28;45524;-78
2023/05/03 11:38:46;;;;;;;;;12.67;10.00;;;;;-147.47;100.00;64613.53;5068416;28;45629;-78
2023/05/03 11:41:15;;;;;;;;;9.67;8.67;;;;;-147.47;100.00;64613.53;5051548;28;45823;-77
2023/05/03 11:43:44;;;;;;;;;11.00;8.67;;;;;-147.47;100.00;64613.53;5053581;28;47064;-79
2023/05/03 11:46:12;;;;;;;;;14.67;10.67;;;;;-147.47;100.00;64613.53;5034659;28;45438;-78
2023/05/03 11:48:37;;;;;;;;;12.67;9.67;;;;;-147.47;100.00;64613.53;5052554;28;45456;-80
2023/05/03 11:51:10;;;;;;;;;14.00;12.67;;;;;-147.47;100.00;64613.53;5055398;28;45576;-79
2023/05/03 11:53:39;;;;;;;;;10.33;9.33;;;;;-147.47;100.00;64613.53;5062104;28;46021;-79
2023/05/03 11:56:12;;;;;;;;;13.33;10.33;;;;;-147.47;100.00;64613.53;5055505;28;45422;-79
2023/05/03 11:58:50;;;;;;;;;3.67;2.67;;;;;-147.47;100.00;64613.53;5037147;28;45630;-79
2023/05/03 12:01:22;;;;;;;;;15.33;11.00;;;;;-147.47;100.00;64613.53;5063930;28;46094;-77
2023/05/03 12:03:52;;;;;;;;;10.33;10.00;;;;;-147.47;100.00;64613.53;5073889;28;45885;-80
2023/05/03 12:06:17;;;;;;;;;9.33;7.67;;;;;-147.47;100.00;64613.53;5056054;28;45735;-79
2023/05/03 12:08:43;;;;;;;;;9.33;9.33;;;;;-147.47;100.00;64613.53;5041005;28;45816;-78
2023/05/03 12:11:08;;;;;;;;;9.00;9.00;;;;;-147.47;100.00;64613.53;5055123;28;45364;-80
2023/05/03 12:13:36;;;;;;;;;8.67;8.67;;;;;-147.47;100.00;64613.53;5034911;28;46938;-77
2023/05/03 12:16:07;;;;;;;;;9.67;9.00;;;;;-147.47;100.00;64613.53;5050021;28;45872;-78
2023/05/03 12:18:52;;;;;;;;;10.33;9.67;;;;;-147.47;100.00;64613.53;5057192;28;45574;-77
2023/05/03 12:21:23;;;;;;;;;12.00;9.00;;;;;-147.47;100.00;64613.53;5032572;28;45657;-80
2023/05/03 12:23:50;;;;;;;;;13.67;12.00;;;;;-147.47;100.00;64613.53;5063489;28;46417;-77
2023/05/03 12:26:19;;;;;;;;;12.67;11.33;;;;;-147.47;100.00;64613.53;5059259;28;45805;-78
2023/05/03 12:28:48;;;;;;;;;13.00;12.00;;;;;-147.47;100.00;64613.53;5057975;28;45634;-75
2023/05/03 12:31:14;;;;;;;;;12.33;11.00;;;;;-147.47;100.00;64613.53;5051465;28;45725;-76
2023/05/03 12:33:39;;;;;;;;;11.00;8.00;;;;;-147.47;100.00;64613.53;5068031;28;46682;-78
2023/05/03 12:36:06;;;;;;;;;7.67;4.00;;;;;-147.47;100.00;64613.53;5066261;28;45450;-80
2023/05/03 12:38:32;;;;;;;;;9.67;8.00;;;;;-147.47;100.00;64613.53;5056316;28;45564;-80
2023/05/03 12:40:58;;;;;;;;;8.00;8.00;;;;;-147.47;100.00;64613.53;5055364;28;45427;-79